Buoy 60728

sailwx.info

Track history (hours):
 
Tides and Currents Weather Stations Pressure Air Temp Water Temp Dewpoint Dewpoint Depression Visibility Wind Speed Wind Dir Waves Ship Positions

Min Long Yu F60728

Last reported at 2018-Apr-22 22:11 UTC. Time now 2018-Apr-24 22:32 UTC.
Position N 24°32' E 118°17'.

Length 22 m.

Type: Fishing. MMSI: 412445171.

Date/timePositionNaut miles runAvg speedWind from/ knotsBaromVisibWave heightAir tempDewpointWater temp
2018-Apr-22 22:11N 24°32' E 118°17'1 5.7
2018-Apr-22 22:00N 24°32' E 118°16'1 0.2
2018-Apr-22 13:46N 24°32' E 118°14'0 0.0
2018-Apr-22 12:09N 24°32' E 118°14'0 1.3
2018-Apr-22 12:00N 24°32' E 118°14'2 5.0
2018-Apr-22 11:30N 24°30' E 118°13'3 6.0
2018-Apr-22 10:58N 24°27' E 118°12'4 7.1
2018-Apr-22 10:28N 24°25' E 118°08'4 8.1
2018-Apr-22 10:00N 24°25' E 118°04'4 8.4
2018-Apr-22 09:30N 24°25' E 117°60'1 0.1
2018-Apr-21 08:13N 24°25' E 117°58'0 0.0
2018-Apr-21 07:49N 24°25' E 117°58'0 0.0
2018-Apr-21 07:28N 24°25' E 117°58'  
Track history (hours):
 
Tides and Currents Weather Stations Pressure Air Temp Water Temp Dewpoint Dewpoint Depression Visibility Wind Speed Wind Dir Waves Ship Positions

Min Long Yu F60728

Last reported at 2018-Apr-22 22:11 UTC. Time now 2018-Apr-24 22:32 UTC.
Position N 24°32' E 118°17'.

Length 22 m.

Type: Fishing. MMSI: 412445171.

Date/timePositionNaut miles runAvg speedWind from/ knotsBaromVisibWave heightAir tempDewpointWater temp
2018-Apr-22 22:11N 24°32' E 118°17'1 5.7
2018-Apr-22 22:00N 24°32' E 118°16'1 0.2
2018-Apr-22 13:46N 24°32' E 118°14'0 0.0
2018-Apr-22 12:09N 24°32' E 118°14'0 1.3
2018-Apr-22 12:00N 24°32' E 118°14'2 5.0
2018-Apr-22 11:30N 24°30' E 118°13'3 6.0
2018-Apr-22 10:58N 24°27' E 118°12'4 7.1
2018-Apr-22 10:28N 24°25' E 118°08'4 8.1
2018-Apr-22 10:00N 24°25' E 118°04'4 8.4
2018-Apr-22 09:30N 24°25' E 117°60'1 0.1
2018-Apr-21 08:13N 24°25' E 117°58'0 0.0
2018-Apr-21 07:49N 24°25' E 117°58'0 0.0
2018-Apr-21 07:28N 24°25' E 117°58'  

Dump ship's entire track history